sensor_id;sensor_type;location;lat;lon;timestamp;temperature;humidity
49222;DHT22;35047;37.588;-122.048;2023-10-31T00:00:42;28.80;33.00
49222;DHT22;35047;37.588;-122.048;2023-10-31T00:03:09;28.70;33.50
49222;DHT22;35047;37.588;-122.048;2023-10-31T00:05:36;28.70;33.50
49222;DHT22;35047;37.588;-122.048;2023-10-31T00:08:03;28.60;33.20
49222;DHT22;35047;37.588;-122.048;2023-10-31T00:10:30;28.50;33.50
49222;DHT22;35047;37.588;-122.048;2023-10-31T00:12:56;28.50;33.40
49222;DHT22;35047;37.588;-122.048;2023-10-31T00:15:22;28.40;33.80
49222;DHT22;35047;37.588;-122.048;2023-10-31T00:17:50;28.40;33.80
49222;DHT22;35047;37.588;-122.048;2023-10-31T00:20:17;28.30;34.20
49222;DHT22;35047;37.588;-122.048;2023-10-31T00:22:43;28.20;34.50
49222;DHT22;35047;37.588;-122.048;2023-10-31T00:25:10;28.20;34.90
49222;DHT22;35047;37.588;-122.048;2023-10-31T00:27:36;28.10;35.30
49222;DHT22;35047;37.588;-122.048;2023-10-31T00:30:03;28.10;35.50
49222;DHT22;35047;37.588;-122.048;2023-10-31T00:32:30;28.00;35.90
49222;DHT22;35047;37.588;-122.048;2023-10-31T00:34:56;27.90;36.50
49222;DHT22;35047;37.588;-122.048;2023-10-31T00:37:23;27.90;37.10
49222;DHT22;35047;37.588;-122.048;2023-10-31T00:39:50;27.80;38.20
49222;DHT22;35047;37.588;-122.048;2023-10-31T00:42:16;27.80;37.80
49222;DHT22;35047;37.588;-122.048;2023-10-31T00:44:43;27.70;38.00
49222;DHT22;35047;37.588;-122.048;2023-10-31T00:47:09;27.60;38.00
49222;DHT22;35047;37.588;-122.048;2023-10-31T00:49:36;27.50;38.10
49222;DHT22;35047;37.588;-122.048;2023-10-31T00:52:02;27.50;38.20
49222;DHT22;35047;37.588;-122.048;2023-10-31T00:54:29;27.40;38.40
49222;DHT22;35047;37.588;-122.048;2023-10-31T00:56:56;27.30;38.60
49222;DHT22;35047;37.588;-122.048;2023-10-31T00:59:22;27.20;39.00
49222;DHT22;35047;37.588;-122.048;2023-10-31T01:01:49;27.10;39.20
49222;DHT22;35047;37.588;-122.048;2023-10-31T01:04:15;27.10;39.70
49222;DHT22;35047;37.588;-122.048;2023-10-31T01:06:43;27.00;40.10
49222;DHT22;35047;37.588;-122.048;2023-10-31T01:09:09;26.80;40.30
49222;DHT22;35047;37.588;-122.048;2023-10-31T01:11:39;26.70;40.50
49222;DHT22;35047;37.588;-122.048;2023-10-31T01:14:05;26.60;40.60
49222;DHT22;35047;37.588;-122.048;2023-10-31T01:16:32;26.60;40.90
49222;DHT22;35047;37.588;-122.048;2023-10-31T01:18:58;26.50;41.30
49222;DHT22;35047;37.588;-122.048;2023-10-31T01:21:25;26.30;41.10
49222;DHT22;35047;37.588;-122.048;2023-10-31T01:23:51;26.20;41.00
49222;DHT22;35047;37.588;-122.048;2023-10-31T01:26:18;26.10;40.90
49222;DHT22;35047;37.588;-122.048;2023-10-31T01:28:44;26.00;41.10
49222;DHT22;35047;37.588;-122.048;2023-10-31T01:31:11;25.90;41.80
49222;DHT22;35047;37.588;-122.048;2023-10-31T01:33:37;25.80;40.70
49222;DHT22;35047;37.588;-122.048;2023-10-31T01:36:04;25.70;40.50
49222;DHT22;35047;37.588;-122.048;2023-10-31T01:38:31;25.60;40.80
49222;DHT22;35047;37.588;-122.048;2023-10-31T01:40:57;25.50;40.80
49222;DHT22;35047;37.588;-122.048;2023-10-31T01:43:34;25.30;41.10
49222;DHT22;35047;37.588;-122.048;2023-10-31T01:46:01;25.20;41.20
49222;DHT22;35047;37.588;-122.048;2023-10-31T01:48:30;25.10;41.50
49222;DHT22;35047;37.588;-122.048;2023-10-31T01:51:02;25.00;41.70
49222;DHT22;35047;37.588;-122.048;2023-10-31T01:53:32;24.90;41.60
49222;DHT22;35047;37.588;-122.048;2023-10-31T01:58:32;24.70;40.90
49222;DHT22;35047;37.588;-122.048;2023-10-31T02:01:00;24.60;41.50
49222;DHT22;35047;37.588;-122.048;2023-10-31T02:03:27;24.50;41.30
49222;DHT22;35047;37.588;-122.048;2023-10-31T02:05:54;24.40;41.10
49222;DHT22;35047;37.588;-122.048;2023-10-31T02:08:21;24.30;41.00
49222;DHT22;35047;37.588;-122.048;2023-10-31T02:10:48;24.30;40.90
49222;DHT22;35047;37.588;-122.048;2023-10-31T02:13:16;24.20;40.80
49222;DHT22;35047;37.588;-122.048;2023-10-31T02:15:43;24.10;40.50
49222;DHT22;35047;37.588;-122.048;2023-10-31T02:18:10;24.00;40.50
49222;DHT22;35047;37.588;-122.048;2023-10-31T02:20:36;24.00;40.60
49222;DHT22;35047;37.588;-122.048;2023-10-31T02:23:04;23.80;40.00
49222;DHT22;35047;37.588;-122.048;2023-10-31T02:25:30;23.80;39.70
49222;DHT22;35047;37.588;-122.048;2023-10-31T02:27:57;23.70;39.80
49222;DHT22;35047;37.588;-122.048;2023-10-31T02:30:25;23.70;39.80
49222;DHT22;35047;37.588;-122.048;2023-10-31T02:32:51;23.60;39.90
49222;DHT22;35047;37.588;-122.048;2023-10-31T02:35:18;23.60;40.00
49222;DHT22;35047;37.588;-122.048;2023-10-31T02:37:45;23.50;40.20
49222;DHT22;35047;37.588;-122.048;2023-10-31T02:40:12;23.40;40.40
49222;DHT22;35047;37.588;-122.048;2023-10-31T02:42:39;23.40;40.30
49222;DHT22;35047;37.588;-122.048;2023-10-31T02:45:06;23.30;40.10
49222;DHT22;35047;37.588;-122.048;2023-10-31T02:47:33;23.20;40.50
49222;DHT22;35047;37.588;-122.048;2023-10-31T02:49:59;23.20;40.70
49222;DHT22;35047;37.588;-122.048;2023-10-31T02:52:26;23.10;40.80
49222;DHT22;35047;37.588;-122.048;2023-10-31T02:54:52;23.00;40.90
49222;DHT22;35047;37.588;-122.048;2023-10-31T02:57:19;23.00;40.90
49222;DHT22;35047;37.588;-122.048;2023-10-31T02:59:45;22.90;40.90
49222;DHT22;35047;37.588;-122.048;2023-10-31T03:02:12;22.80;41.00
49222;DHT22;35047;37.588;-122.048;2023-10-31T03:04:38;22.70;41.50
49222;DHT22;35047;37.588;-122.048;2023-10-31T03:07:05;22.70;41.50
49222;DHT22;35047;37.588;-122.048;2023-10-31T03:09:31;22.60;41.90
49222;DHT22;35047;37.588;-122.048;2023-10-31T03:11:58;22.50;42.00
49222;DHT22;35047;37.588;-122.048;2023-10-31T03:14:25;22.40;42.20
49222;DHT22;35047;37.588;-122.048;2023-10-31T03:16:51;22.30;42.10
49222;DHT22;35047;37.588;-122.048;2023-10-31T03:19:18;22.30;42.70
49222;DHT22;35047;37.588;-122.048;2023-10-31T03:21:44;22.20;42.90
49222;DHT22;35047;37.588;-122.048;2023-10-31T03:24:11;22.10;42.70
49222;DHT22;35047;37.588;-122.048;2023-10-31T03:26:37;22.10;43.00
49222;DHT22;35047;37.588;-122.048;2023-10-31T03:29:04;22.00;43.20
49222;DHT22;35047;37.588;-122.048;2023-10-31T03:31:30;21.90;43.40
49222;DHT22;35047;37.588;-122.048;2023-10-31T03:33:57;21.80;43.90
49222;DHT22;35047;37.588;-122.048;2023-10-31T03:36:24;21.80;44.60
49222;DHT22;35047;37.588;-122.048;2023-10-31T03:38:50;21.70;43.60
49222;DHT22;35047;37.588;-122.048;2023-10-31T03:41:16;21.60;43.90
49222;DHT22;35047;37.588;-122.048;2023-10-31T03:43:43;21.50;43.90
49222;DHT22;35047;37.588;-122.048;2023-10-31T03:46:11;21.50;44.40
49222;DHT22;35047;37.588;-122.048;2023-10-31T03:48:37;21.40;44.40
49222;DHT22;35047;37.588;-122.048;2023-10-31T03:51:04;21.30;44.60
49222;DHT22;35047;37.588;-122.048;2023-10-31T03:53:30;21.30;44.90
49222;DHT22;35047;37.588;-122.048;2023-10-31T03:55:59;21.20;44.80
49222;DHT22;35047;37.588;-122.048;2023-10-31T03:58:26;21.10;44.60
49222;DHT22;35047;37.588;-122.048;2023-10-31T04:00:52;21.00;45.00
49222;DHT22;35047;37.588;-122.048;2023-10-31T04:03:19;21.00;45.30
49222;DHT22;35047;37.588;-122.048;2023-10-31T04:05:45;20.90;45.40
49222;DHT22;35047;37.588;-122.048;2023-10-31T04:08:12;20.80;45.40
49222;DHT22;35047;37.588;-122.048;2023-10-31T04:10:38;20.80;45.30
49222;DHT22;35047;37.588;-122.048;2023-10-31T04:13:05;20.80;45.70
49222;DHT22;35047;37.588;-122.048;2023-10-31T04:15:31;20.70;45.60
49222;DHT22;35047;37.588;-122.048;2023-10-31T04:17:58;20.60;45.70
49222;DHT22;35047;37.588;-122.048;2023-10-31T04:20:24;20.60;46.10
49222;DHT22;35047;37.588;-122.048;2023-10-31T04:22:51;20.50;46.40
49222;DHT22;35047;37.588;-122.048;2023-10-31T04:25:17;20.50;46.50
49222;DHT22;35047;37.588;-122.048;2023-10-31T04:27:44;20.40;46.80
49222;DHT22;35047;37.588;-122.048;2023-10-31T04:30:11;20.40;47.00
49222;DHT22;35047;37.588;-122.048;2023-10-31T04:32:37;20.30;47.50
49222;DHT22;35047;37.588;-122.048;2023-10-31T04:35:04;20.30;47.80
49222;DHT22;35047;37.588;-122.048;2023-10-31T04:37:30;20.20;47.80
49222;DHT22;35047;37.588;-122.048;2023-10-31T04:39:57;20.20;48.40
49222;DHT22;35047;37.588;-122.048;2023-10-31T04:42:24;20.10;48.80
49222;DHT22;35047;37.588;-122.048;2023-10-31T04:44:50;20.10;49.20
49222;DHT22;35047;37.588;-122.048;2023-10-31T04:47:17;20.00;49.30
49222;DHT22;35047;37.588;-122.048;2023-10-31T04:49:43;19.90;49.30
49222;DHT22;35047;37.588;-122.048;2023-10-31T04:52:10;19.90;49.70
49222;DHT22;35047;37.588;-122.048;2023-10-31T04:54:36;19.80;49.50
49222;DHT22;35047;37.588;-122.048;2023-10-31T04:57:03;19.80;49.70
49222;DHT22;35047;37.588;-122.048;2023-10-31T04:59:30;19.70;49.80
49222;DHT22;35047;37.588;-122.048;2023-10-31T05:01:58;19.70;50.20
49222;DHT22;35047;37.588;-122.048;2023-10-31T05:04:25;19.60;50.10
49222;DHT22;35047;37.588;-122.048;2023-10-31T05:06:51;19.60;50.50
49222;DHT22;35047;37.588;-122.048;2023-10-31T05:09:18;19.50;50.50
49222;DHT22;35047;37.588;-122.048;2023-10-31T05:11:46;19.50;50.60
49222;DHT22;35047;37.588;-122.048;2023-10-31T05:14:12;19.40;50.80
49222;DHT22;35047;37.588;-122.048;2023-10-31T05:16:45;19.40;51.10
49222;DHT22;35047;37.588;-122.048;2023-10-31T05:19:11;19.40;51.30
49222;DHT22;35047;37.588;-122.048;2023-10-31T05:21:38;19.30;51.20
49222;DHT22;35047;37.588;-122.048;2023-10-31T05:24:05;19.20;51.40
49222;DHT22;35047;37.588;-122.048;2023-10-31T05:26:32;19.20;51.40
49222;DHT22;35047;37.588;-122.048;2023-10-31T05:28:59;19.10;51.30
49222;DHT22;35047;37.588;-122.048;2023-10-31T05:31:26;19.10;51.50
49222;DHT22;35047;37.588;-122.048;2023-10-31T05:33:52;19.00;51.70
49222;DHT22;35047;37.588;-122.048;2023-10-31T05:36:20;19.00;52.00
49222;DHT22;35047;37.588;-122.048;2023-10-31T05:38:47;19.00;52.00
49222;DHT22;35047;37.588;-122.048;2023-10-31T05:41:14;18.90;52.00
49222;DHT22;35047;37.588;-122.048;2023-10-31T05:43:41;18.90;52.00
49222;DHT22;35047;37.588;-122.048;2023-10-31T05:46:08;18.80;52.10
49222;DHT22;35047;37.588;-122.048;2023-10-31T05:48:44;18.80;52.20
49222;DHT22;35047;37.588;-122.048;2023-10-31T05:51:16;18.80;52.30
49222;DHT22;35047;37.588;-122.048;2023-10-31T05:53:45;18.70;52.30
49222;DHT22;35047;37.588;-122.048;2023-10-31T05:56:13;18.70;52.40
49222;DHT22;35047;37.588;-122.048;2023-10-31T05:58:40;18.60;52.40
49222;DHT22;35047;37.588;-122.048;2023-10-31T06:01:07;18.60;52.50
49222;DHT22;35047;37.588;-122.048;2023-10-31T06:03:37;18.50;52.70
49222;DHT22;35047;37.588;-122.048;2023-10-31T06:06:04;18.50;53.10
49222;DHT22;35047;37.588;-122.048;2023-10-31T06:08:30;18.50;52.70
49222;DHT22;35047;37.588;-122.048;2023-10-31T06:10:58;18.40;52.80
49222;DHT22;35047;37.588;-122.048;2023-10-31T06:13:25;18.40;52.90
49222;DHT22;35047;37.588;-122.048;2023-10-31T06:15:55;18.30;53.00
49222;DHT22;35047;37.588;-122.048;2023-10-31T06:18:24;18.30;53.20
49222;DHT22;35047;37.588;-122.048;2023-10-31T06:20:50;18.30;53.30
49222;DHT22;35047;37.588;-122.048;2023-10-31T06:23:16;18.20;53.10
49222;DHT22;35047;37.588;-122.048;2023-10-31T06:25:43;18.20;53.40
49222;DHT22;35047;37.588;-122.048;2023-10-31T06:28:10;18.20;53.70
49222;DHT22;35047;37.588;-122.048;2023-10-31T06:30:36;18.10;53.60
49222;DHT22;35047;37.588;-122.048;2023-10-31T06:33:03;18.10;53.90
49222;DHT22;35047;37.588;-122.048;2023-10-31T06:35:29;18.00;54.00
49222;DHT22;35047;37.588;-122.048;2023-10-31T06:37:56;18.00;54.00
49222;DHT22;35047;37.588;-122.048;2023-10-31T06:40:24;17.90;54.10
49222;DHT22;35047;37.588;-122.048;2023-10-31T06:42:51;17.90;54.20
49222;DHT22;35047;37.588;-122.048;2023-10-31T06:45:18;17.80;54.20
49222;DHT22;35047;37.588;-122.048;2023-10-31T06:47:44;17.80;54.10
49222;DHT22;35047;37.588;-122.048;2023-10-31T06:50:11;17.80;54.20
49222;DHT22;35047;37.588;-122.048;2023-10-31T06:52:37;17.70;54.50
49222;DHT22;35047;37.588;-122.048;2023-10-31T06:55:04;17.70;54.70
49222;DHT22;35047;37.588;-122.048;2023-10-31T06:57:31;17.70;54.90
49222;DHT22;35047;37.588;-122.048;2023-10-31T06:59:58;17.60;55.10
49222;DHT22;35047;37.588;-122.048;2023-10-31T07:02:24;17.60;55.20
49222;DHT22;35047;37.588;-122.048;2023-10-31T07:04:52;17.60;55.30
49222;DHT22;35047;37.588;-122.048;2023-10-31T07:07:18;17.50;55.40
49222;DHT22;35047;37.588;-122.048;2023-10-31T07:09:45;17.50;55.70
49222;DHT22;35047;37.588;-122.048;2023-10-31T07:12:11;17.40;55.80
49222;DHT22;35047;37.588;-122.048;2023-10-31T07:14:37;17.40;56.00
49222;DHT22;35047;37.588;-122.048;2023-10-31T07:17:04;17.40;55.90
49222;DHT22;35047;37.588;-122.048;2023-10-31T07:19:30;17.30;56.00
49222;DHT22;35047;37.588;-122.048;2023-10-31T07:21:57;17.30;56.00
49222;DHT22;35047;37.588;-122.048;2023-10-31T07:24:23;17.20;55.80
49222;DHT22;35047;37.588;-122.048;2023-10-31T07:26:52;17.20;55.80
49222;DHT22;35047;37.588;-122.048;2023-10-31T07:29:19;17.20;56.20
49222;DHT22;35047;37.588;-122.048;2023-10-31T07:31:45;17.10;56.30
49222;DHT22;35047;37.588;-122.048;2023-10-31T07:34:12;17.10;56.40
49222;DHT22;35047;37.588;-122.048;2023-10-31T07:36:38;17.10;56.60
49222;DHT22;35047;37.588;-122.048;2023-10-31T07:39:08;17.00;56.70
49222;DHT22;35047;37.588;-122.048;2023-10-31T07:41:34;17.00;56.40
49222;DHT22;35047;37.588;-122.048;2023-10-31T07:44:01;16.90;56.50
49222;DHT22;35047;37.588;-122.048;2023-10-31T07:46:28;16.90;56.70
49222;DHT22;35047;37.588;-122.048;2023-10-31T07:48:55;16.90;56.80
49222;DHT22;35047;37.588;-122.048;2023-10-31T07:51:21;16.90;56.90
49222;DHT22;35047;37.588;-122.048;2023-10-31T07:53:48;16.80;56.60
49222;DHT22;35047;37.588;-122.048;2023-10-31T07:56:21;16.80;56.80
49222;DHT22;35047;37.588;-122.048;2023-10-31T07:58:49;16.80;56.90
49222;DHT22;35047;37.588;-122.048;2023-10-31T08:01:17;16.70;56.60
49222;DHT22;35047;37.588;-122.048;2023-10-31T08:03:46;16.70;57.00
49222;DHT22;35047;37.588;-122.048;2023-10-31T08:06:13;16.70;57.10
49222;DHT22;35047;37.588;-122.048;2023-10-31T08:08:40;16.70;57.10
49222;DHT22;35047;37.588;-122.048;2023-10-31T08:11:10;16.60;57.00
49222;DHT22;35047;37.588;-122.048;2023-10-31T08:13:37;16.60;57.10
49222;DHT22;35047;37.588;-122.048;2023-10-31T08:16:08;16.50;56.90
49222;DHT22;35047;37.588;-122.048;2023-10-31T08:18:35;16.50;57.20
49222;DHT22;35047;37.588;-122.048;2023-10-31T08:21:02;16.50;57.20
49222;DHT22;35047;37.588;-122.048;2023-10-31T08:23:29;16.50;57.30
49222;DHT22;35047;37.588;-122.048;2023-10-31T08:25:56;16.40;57.40
49222;DHT22;35047;37.588;-122.048;2023-10-31T08:28:23;16.40;57.40
49222;DHT22;35047;37.588;-122.048;2023-10-31T08:30:49;16.30;57.60
49222;DHT22;35047;37.588;-122.048;2023-10-31T08:33:16;16.30;57.70
49222;DHT22;35047;37.588;-122.048;2023-10-31T08:35:42;16.30;57.60
49222;DHT22;35047;37.588;-122.048;2023-10-31T08:38:09;16.30;57.50
49222;DHT22;35047;37.588;-122.048;2023-10-31T08:40:35;16.20;57.30
49222;DHT22;35047;37.588;-122.048;2023-10-31T08:43:02;16.20;57.40
49222;DHT22;35047;37.588;-122.048;2023-10-31T08:45:33;16.20;57.60
49222;DHT22;35047;37.588;-122.048;2023-10-31T08:48:00;16.20;57.40
49222;DHT22;35047;37.588;-122.048;2023-10-31T08:50:27;16.10;57.50
49222;DHT22;35047;37.588;-122.048;2023-10-31T08:52:53;16.10;57.50
49222;DHT22;35047;37.588;-122.048;2023-10-31T08:55:20;16.00;57.40
49222;DHT22;35047;37.588;-122.048;2023-10-31T08:57:46;16.00;57.40
49222;DHT22;35047;37.588;-122.048;2023-10-31T09:00:13;16.00;57.60
49222;DHT22;35047;37.588;-122.048;2023-10-31T09:02:40;16.00;57.80
49222;DHT22;35047;37.588;-122.048;2023-10-31T09:05:06;15.90;57.80
49222;DHT22;35047;37.588;-122.048;2023-10-31T09:07:33;15.90;58.20
49222;DHT22;35047;37.588;-122.048;2023-10-31T09:10:00;15.90;58.20
49222;DHT22;35047;37.588;-122.048;2023-10-31T09:12:26;15.90;58.20
49222;DHT22;35047;37.588;-122.048;2023-10-31T09:14:52;15.90;57.90
49222;DHT22;35047;37.588;-122.048;2023-10-31T09:17:19;15.90;58.00
49222;DHT22;35047;37.588;-122.048;2023-10-31T09:19:45;15.80;57.90
49222;DHT22;35047;37.588;-122.048;2023-10-31T09:22:12;15.80;58.10
49222;DHT22;35047;37.588;-122.048;2023-10-31T09:24:38;15.80;58.10
49222;DHT22;35047;37.588;-122.048;2023-10-31T09:27:06;15.80;58.20
49222;DHT22;35047;37.588;-122.048;2023-10-31T09:29:32;15.70;58.40
49222;DHT22;35047;37.588;-122.048;2023-10-31T09:31:59;15.70;58.30
49222;DHT22;35047;37.588;-122.048;2023-10-31T09:34:26;15.70;58.20
49222;DHT22;35047;37.588;-122.048;2023-10-31T09:36:52;15.60;58.10
49222;DHT22;35047;37.588;-122.048;2023-10-31T09:39:19;15.70;58.40
49222;DHT22;35047;37.588;-122.048;2023-10-31T09:41:46;15.60;58.20
49222;DHT22;35047;37.588;-122.048;2023-10-31T09:44:13;15.60;58.40
49222;DHT22;35047;37.588;-122.048;2023-10-31T09:46:40;15.60;58.50
49222;DHT22;35047;37.588;-122.048;2023-10-31T09:49:07;15.50;58.20
49222;DHT22;35047;37.588;-122.048;2023-10-31T09:51:37;15.50;58.10
49222;DHT22;35047;37.588;-122.048;2023-10-31T09:54:06;15.50;58.00
49222;DHT22;35047;37.588;-122.048;2023-10-31T09:56:34;15.40;58.20
49222;DHT22;35047;37.588;-122.048;2023-10-31T09:59:01;15.50;58.40
49222;DHT22;35047;37.588;-122.048;2023-10-31T10:01:31;15.40;58.60
49222;DHT22;35047;37.588;-122.048;2023-10-31T10:03:58;15.40;58.20
49222;DHT22;35047;37.588;-122.048;2023-10-31T10:06:25;15.40;58.30
49222;DHT22;35047;37.588;-122.048;2023-10-31T10:08:52;15.40;58.40
49222;DHT22;35047;37.588;-122.048;2023-10-31T10:11:19;15.30;58.30
49222;DHT22;35047;37.588;-122.048;2023-10-31T10:13:45;15.30;58.50
49222;DHT22;35047;37.588;-122.048;2023-10-31T10:16:12;15.20;58.00
49222;DHT22;35047;37.588;-122.048;2023-10-31T10:18:38;15.20;58.20
49222;DHT22;35047;37.588;-122.048;2023-10-31T10:21:09;15.20;58.20
49222;DHT22;35047;37.588;-122.048;2023-10-31T10:23:36;15.20;58.10
49222;DHT22;35047;37.588;-122.048;2023-10-31T10:26:02;15.20;58.50
49222;DHT22;35047;37.588;-122.048;2023-10-31T10:28:29;15.10;58.70
49222;DHT22;35047;37.588;-122.048;2023-10-31T10:30:55;15.10;58.50
49222;DHT22;35047;37.588;-122.048;2023-10-31T10:33:22;15.00;58.30
49222;DHT22;35047;37.588;-122.048;2023-10-31T10:35:49;15.00;58.20
49222;DHT22;35047;37.588;-122.048;2023-10-31T10:38:17;15.00;58.40
49222;DHT22;35047;37.588;-122.048;2023-10-31T10:40:46;15.00;58.50
49222;DHT22;35047;37.588;-122.048;2023-10-31T10:43:20;15.00;58.70
49222;DHT22;35047;37.588;-122.048;2023-10-31T10:45:53;14.90;58.40
49222;DHT22;35047;37.588;-122.048;2023-10-31T10:48:20;14.90;58.70
49222;DHT22;35047;37.588;-122.048;2023-10-31T10:50:48;14.90;58.80
49222;DHT22;35047;37.588;-122.048;2023-10-31T10:53:22;14.90;59.00
49222;DHT22;35047;37.588;-122.048;2023-10-31T10:56:03;14.80;59.70
49222;DHT22;35047;37.588;-122.048;2023-10-31T10:58:41;14.80;59.20
49222;DHT22;35047;37.588;-122.048;2023-10-31T11:01:11;14.80;59.10
49222;DHT22;35047;37.588;-122.048;2023-10-31T11:03:39;14.80;59.30
49222;DHT22;35047;37.588;-122.048;2023-10-31T11:06:06;14.70;59.30
49222;DHT22;35047;37.588;-122.048;2023-10-31T11:08:34;14.80;59.50
49222;DHT22;35047;37.588;-122.048;2023-10-31T11:11:01;14.70;59.60
49222;DHT22;35047;37.588;-122.048;2023-10-31T11:13:28;14.70;59.60
49222;DHT22;35047;37.588;-122.048;2023-10-31T11:15:59;14.70;59.80
49222;DHT22;35047;37.588;-122.048;2023-10-31T11:18:28;14.70;59.80
49222;DHT22;35047;37.588;-122.048;2023-10-31T11:20:55;14.70;59.90
49222;DHT22;35047;37.588;-122.048;2023-10-31T11:23:21;14.60;60.10
49222;DHT22;35047;37.588;-122.048;2023-10-31T11:25:50;14.60;59.40
49222;DHT22;35047;37.588;-122.048;2023-10-31T11:28:19;14.60;59.60
49222;DHT22;35047;37.588;-122.048;2023-10-31T11:30:49;14.60;59.60
49222;DHT22;35047;37.588;-122.048;2023-10-31T11:33:18;14.60;59.60
49222;DHT22;35047;37.588;-122.048;2023-10-31T11:35:50;14.60;59.80
49222;DHT22;35047;37.588;-122.048;2023-10-31T11:38:32;14.50;59.40
49222;DHT22;35047;37.588;-122.048;2023-10-31T11:41:01;14.50;60.20
49222;DHT22;35047;37.588;-122.048;2023-10-31T11:46:19;14.50;59.60
49222;DHT22;35047;37.588;-122.048;2023-10-31T11:51:13;14.50;59.90
49222;DHT22;35047;37.588;-122.048;2023-10-31T11:53:40;14.40;60.00
49222;DHT22;35047;37.588;-122.048;2023-10-31T11:56:10;14.40;59.90
49222;DHT22;35047;37.588;-122.048;2023-10-31T11:58:37;14.40;60.00
49222;DHT22;35047;37.588;-122.048;2023-10-31T12:01:05;14.40;60.00
49222;DHT22;35047;37.588;-122.048;2023-10-31T12:03:42;14.40;60.00
49222;DHT22;35047;37.588;-122.048;2023-10-31T12:06:14;14.30;60.10
49222;DHT22;35047;37.588;-122.048;2023-10-31T12:08:41;14.30;59.90
49222;DHT22;35047;37.588;-122.048;2023-10-31T12:11:13;14.30;59.80
49222;DHT22;35047;37.588;-122.048;2023-10-31T12:16:18;14.30;60.00
49222;DHT22;35047;37.588;-122.048;2023-10-31T12:18:45;14.20;60.00
49222;DHT22;35047;37.588;-122.048;2023-10-31T12:21:11;14.20;60.20
49222;DHT22;35047;37.588;-122.048;2023-10-31T12:23:40;14.20;60.20
49222;DHT22;35047;37.588;-122.048;2023-10-31T12:26:07;14.20;60.30
49222;DHT22;35047;37.588;-122.048;2023-10-31T12:28:33;14.20;60.10
49222;DHT22;35047;37.588;-122.048;2023-10-31T12:31:02;14.20;59.90
49222;DHT22;35047;37.588;-122.048;2023-10-31T12:33:29;14.10;59.90
49222;DHT22;35047;37.588;-122.048;2023-10-31T12:35:59;14.10;59.90
49222;DHT22;35047;37.588;-122.048;2023-10-31T12:38:27;14.10;60.20
49222;DHT22;35047;37.588;-122.048;2023-10-31T12:40:54;14.10;60.10
49222;DHT22;35047;37.588;-122.048;2023-10-31T12:43:22;14.10;60.10
49222;DHT22;35047;37.588;-122.048;2023-10-31T12:45:49;14.10;60.10
49222;DHT22;35047;37.588;-122.048;2023-10-31T12:48:15;14.00;60.00
49222;DHT22;35047;37.588;-122.048;2023-10-31T12:50:42;14.00;59.90
49222;DHT22;35047;37.588;-122.048;2023-10-31T12:53:09;14.00;60.00
49222;DHT22;35047;37.588;-122.048;2023-10-31T12:55:40;14.00;60.10
49222;DHT22;35047;37.588;-122.048;2023-10-31T12:58:07;14.00;60.10
49222;DHT22;35047;37.588;-122.048;2023-10-31T13:00:36;14.00;60.30
49222;DHT22;35047;37.588;-122.048;2023-10-31T13:03:05;14.00;60.30
49222;DHT22;35047;37.588;-122.048;2023-10-31T13:05:32;13.90;60.30
49222;DHT22;35047;37.588;-122.048;2023-10-31T13:07:59;13.90;60.50
49222;DHT22;35047;37.588;-122.048;2023-10-31T13:10:27;13.90;60.50
49222;DHT22;35047;37.588;-122.048;2023-10-31T13:13:01;13.90;61.00
49222;DHT22;35047;37.588;-122.048;2023-10-31T13:15:27;13.90;61.20
49222;DHT22;35047;37.588;-122.048;2023-10-31T13:17:54;13.90;61.40
49222;DHT22;35047;37.588;-122.048;2023-10-31T13:20:21;13.90;61.50
49222;DHT22;35047;37.588;-122.048;2023-10-31T13:22:48;13.90;61.70
49222;DHT22;35047;37.588;-122.048;2023-10-31T13:25:16;13.90;61.90
49222;DHT22;35047;37.588;-122.048;2023-10-31T13:27:43;13.90;62.00
49222;DHT22;35047;37.588;-122.048;2023-10-31T13:30:13;13.90;61.80
49222;DHT22;35047;37.588;-122.048;2023-10-31T13:32:40;13.80;61.80
49222;DHT22;35047;37.588;-122.048;2023-10-31T13:35:07;13.90;62.00
49222;DHT22;35047;37.588;-122.048;2023-10-31T13:37:38;13.90;62.30
49222;DHT22;35047;37.588;-122.048;2023-10-31T13:40:05;13.90;62.30
49222;DHT22;35047;37.588;-122.048;2023-10-31T13:42:35;13.80;62.30
49222;DHT22;35047;37.588;-122.048;2023-10-31T13:45:01;13.90;62.40
49222;DHT22;35047;37.588;-122.048;2023-10-31T13:47:28;13.80;62.00
49222;DHT22;35047;37.588;-122.048;2023-10-31T13:49:55;13.80;61.70
49222;DHT22;35047;37.588;-122.048;2023-10-31T13:52:22;13.80;61.80
49222;DHT22;35047;37.588;-122.048;2023-10-31T13:54:48;13.80;62.10
49222;DHT22;35047;37.588;-122.048;2023-10-31T13:57:15;13.80;62.50
49222;DHT22;35047;37.588;-122.048;2023-10-31T13:59:41;13.80;62.70
49222;DHT22;35047;37.588;-122.048;2023-10-31T14:02:07;13.80;62.40
49222;DHT22;35047;37.588;-122.048;2023-10-31T14:04:35;13.80;62.50
49222;DHT22;35047;37.588;-122.048;2023-10-31T14:07:01;13.80;62.30
49222;DHT22;35047;37.588;-122.048;2023-10-31T14:09:28;13.70;62.20
49222;DHT22;35047;37.588;-122.048;2023-10-31T14:11:55;13.80;62.50
49222;DHT22;35047;37.588;-122.048;2023-10-31T14:14:23;13.80;62.60
49222;DHT22;35047;37.588;-122.048;2023-10-31T14:16:49;13.70;62.70
49222;DHT22;35047;37.588;-122.048;2023-10-31T14:19:16;13.70;62.90
49222;DHT22;35047;37.588;-122.048;2023-10-31T14:21:42;13.70;63.00
49222;DHT22;35047;37.588;-122.048;2023-10-31T14:24:09;13.70;62.60
49222;DHT22;35047;37.588;-122.048;2023-10-31T14:26:36;13.70;62.70
49222;DHT22;35047;37.588;-122.048;2023-10-31T14:29:04;13.70;62.80
49222;DHT22;35047;37.588;-122.048;2023-10-31T14:31:31;13.70;62.90
49222;DHT22;35047;37.588;-122.048;2023-10-31T14:33:57;13.70;63.20
49222;DHT22;35047;37.588;-122.048;2023-10-31T14:36:24;13.70;63.00
49222;DHT22;35047;37.588;-122.048;2023-10-31T14:38:50;13.70;63.20
49222;DHT22;35047;37.588;-122.048;2023-10-31T14:41:17;13.70;63.40
49222;DHT22;35047;37.588;-122.048;2023-10-31T14:43:43;13.70;63.40
49222;DHT22;35047;37.588;-122.048;2023-10-31T14:46:10;13.70;63.40
49222;DHT22;35047;37.588;-122.048;2023-10-31T14:48:36;13.70;63.40
49222;DHT22;35047;37.588;-122.048;2023-10-31T14:51:03;13.70;63.50
49222;DHT22;35047;37.588;-122.048;2023-10-31T14:53:30;13.70;63.50
49222;DHT22;35047;37.588;-122.048;2023-10-31T14:55:56;13.70;63.50
49222;DHT22;35047;37.588;-122.048;2023-10-31T14:58:23;13.80;63.70